Time;durP1;ratioP1;P1;durP2;ratioP2;P2;SDS_P1;SDS_P2;PMS_P1;PMS_P2;Temp;Humidity;BMP_temperature;BMP_pressure;BME280_temperature;BME280_humidity;BME280_pressure;Samples;Min_cycle;Max_cycle;Signal;HPM_P1;HPM_P2
2022/12/15 00:40:40;;;;;;;132.70;79.87;;;;;;;-2.05;100.00;99194.03;5017733;28;20292;-75
2022/12/15 00:43:10;;;;;;;142.83;85.17;;;;;;;-2.08;100.00;99204.09;5014576;28;20208;-73
2022/12/15 00:48:20;;;;;;;124.03;80.10;;;;;;;-2.03;100.00;99203.38;5015436;28;20192;-76
2022/12/15 00:50:51;;;;;;;117.70;74.70;;;;;;;-2.07;100.00;99206.66;5015212;28;20189;-74
2022/12/15 01:20:41;;;;;;;98.27;63.80;;;;;;;-2.07;100.00;99206.66;5018135;28;20678;-73
2022/12/15 01:23:06;;;;;;;91.43;61.03;;;;;;;-2.06;100.00;99215.13;5018938;28;20204;-73
2022/12/15 01:25:31;;;;;;;89.97;60.43;;;;;;;-2.08;100.00;99225.22;5016064;28;20275;-74
2022/12/15 01:27:57;;;;;;;90.50;60.17;;;;;;;-2.06;100.00;99225.28;5019355;28;20190;-72
2022/12/15 01:30:24;;;;;;;83.80;60.27;;;;;;;-2.06;100.00;99231.19;5007198;28;20199;-72
2022/12/15 01:32:50;;;;;;;84.77;59.13;;;;;;;-2.02;100.00;99227.06;5018705;28;20460;-72
2022/12/15 01:35:16;;;;;;;80.33;57.27;;;;;;;-2.02;100.00;99221.97;5024559;28;20219;-72
2022/12/15 01:37:42;;;;;;;83.77;56.07;;;;;;;-2.00;100.00;99222.88;5019890;28;20194;-73
2022/12/15 01:42:56;;;;;;;78.53;54.33;;;;;;;-2.01;100.00;99226.22;5018088;28;20202;-74
2022/12/15 01:45:27;;;;;;;75.27;53.00;;;;;;;-2.00;100.00;99227.94;5018165;28;20189;-75
2022/12/15 01:47:56;;;;;;;75.07;53.73;;;;;;;-2.02;100.00;99227.06;5007441;28;20231;-74
2022/12/15 01:50:24;;;;;;;75.57;54.47;;;;;;;-2.02;100.00;99232.13;5021262;28;20652;-74
2022/12/15 01:52:52;;;;;;;74.43;55.13;;;;;;;-2.02;100.00;99221.97;5016921;28;20232;-75
2022/12/15 01:55:19;;;;;;;71.40;54.93;;;;;;;-2.06;100.00;99213.44;5018327;28;20779;-74
2022/12/15 01:57:45;;;;;;;73.90;52.67;;;;;;;-2.04;100.00;99224.50;5007269;28;20197;-74
2022/12/15 02:00:12;;;;;;;68.70;51.43;;;;;;;-2.08;100.00;99229.44;5018751;28;20358;-74
2022/12/15 02:02:38;;;;;;;70.90;52.50;;;;;;;-2.09;100.00;99240.41;5015988;28;20840;-75
2022/12/15 02:05:05;;;;;;;68.57;50.40;;;;;;;-2.09;100.00;99237.88;5017670;28;20205;-75
2022/12/15 02:07:30;;;;;;;69.53;49.90;;;;;;;-2.10;100.00;99241.22;5020379;28;20230;-74
2022/12/15 02:09:59;;;;;;;67.50;47.87;;;;;;;-2.11;100.00;99242.88;5020530;28;20198;-75
2022/12/15 02:12:43;;;;;;;67.47;49.03;;;;;;;-2.13;100.00;99231.88;5018904;28;20329;-75
2022/12/15 02:15:14;;;;;;;62.53;46.20;;;;;;;-2.10;100.00;99238.69;5017807;28;20299;-75
2022/12/15 02:18:01;;;;;;;64.60;47.30;;;;;;;-2.11;100.00;99242.88;5019741;28;20195;-75
2022/12/15 02:21:03;;;;;;;61.07;45.93;;;;;;;-2.10;100.00;99247.13;5018608;28;20272;-75
2022/12/15 02:23:31;;;;;;;63.00;45.90;;;;;;;-2.06;100.00;99243.88;5016686;28;20753;-75
2022/12/15 02:26:31;;;;;;;59.90;44.57;;;;;;;-2.02;100.00;99238.06;5017963;28;20216;-75
2022/12/15 02:29:23;;;;;;;59.07;42.70;;;;;;;-2.07;100.00;99247.22;5018471;28;20267;-75
2022/12/15 02:31:55;;;;;;;57.27;43.97;;;;;;;-2.04;100.00;99254.06;5016457;28;20193;-76
2022/12/15 02:34:33;;;;;;;56.00;42.13;;;;;;;-2.02;100.00;99255.81;5014745;28;20216;-76
2022/12/15 02:37:03;;;;;;;52.60;41.50;;;;;;;-2.02;100.00;99252.41;5022439;28;20813;-75
2022/12/15 02:39:29;;;;;;;56.60;41.60;;;;;;;-1.98;100.00;99254.22;5009352;28;20207;-75
2022/12/15 02:41:54;;;;;;;50.13;40.67;;;;;;;-1.97;100.00;99252.53;5050805;28;20192;-76
2022/12/15 02:44:49;;;;;;;48.17;38.90;;;;;;;-1.93;100.00;99257.72;5046194;28;20202;-76
2022/12/15 02:47:44;;;;;;;47.77;39.50;;;;;;;-1.94;100.00;99252.59;5021716;28;20203;-75
2022/12/15 02:50:10;;;;;;;44.97;37.83;;;;;;;-1.92;100.00;99249.31;5000780;28;20542;-76
2022/12/15 02:53:02;;;;;;;44.37;36.77;;;;;;;-1.90;100.00;99249.31;5024444;28;20188;-76
2022/12/15 02:55:59;;;;;;;44.77;35.80;;;;;;;-1.89;100.00;99248.50;5041288;28;20223;-75
2022/12/15 02:58:40;;;;;;;45.50;36.00;;;;;;;-1.94;100.00;99245.88;5020905;28;20291;-75
2022/12/15 03:01:27;;;;;;;46.93;35.03;;;;;;;-1.92;100.00;99256.03;5039495;28;20672;-74
2022/12/15 03:03:54;;;;;;;40.00;33.50;;;;;;;-1.88;100.00;99262.91;5027340;28;20199;-74
2022/12/15 03:06:19;;;;;;;36.63;31.37;;;;;;;-1.86;100.00;99258.72;5026251;28;20185;-75
2022/12/15 03:08:45;;;;;;;38.27;31.53;;;;;;;-1.88;100.00;99251.06;5026668;28;20192;-75
2022/12/15 03:11:10;;;;;;;36.40;31.03;;;;;;;-1.91;100.00;99260.28;5022214;28;20181;-76
2022/12/15 03:13:35;;;;;;;35.87;30.30;;;;;;;-1.95;100.00;99255.94;5024104;28;20200;-75
2022/12/15 03:16:00;;;;;;;37.23;29.93;;;;;;;-1.96;100.00;99270.31;5032205;28;20285;-75
2022/12/15 03:18:26;;;;;;;34.77;30.50;;;;;;;-1.95;100.00;99273.69;5031568;28;20228;-75
2022/12/15 03:20:52;;;;;;;34.60;29.13;;;;;;;-2.00;100.00;99269.41;5035661;28;20670;-75
2022/12/15 03:23:18;;;;;;;36.00;29.47;;;;;;;-1.96;100.00;99256.78;5026549;28;20204;-75
2022/12/15 03:25:45;;;;;;;36.03;30.10;;;;;;;-2.00;100.00;99256.72;5045511;28;20646;-75
2022/12/15 03:28:11;;;;;;;33.13;29.03;;;;;;;-2.00;100.00;99263.44;5025201;28;20192;-75
2022/12/15 03:30:36;;;;;;;32.47;28.23;;;;;;;-2.01;100.00;99264.25;5008035;28;20183;-75
2022/12/15 03:33:02;;;;;;;34.77;28.70;;;;;;;-2.02;100.00;99265.97;5025376;28;20183;-74
2022/12/15 03:35:27;;;;;;;31.97;28.47;;;;;;;-2.08;100.00;99263.25;5021137;28;20205;-74
2022/12/15 03:37:53;;;;;;;35.40;29.53;;;;;;;-2.11;100.00;99270.78;5018619;28;20206;-74
2022/12/15 03:40:18;;;;;;;32.73;28.33;;;;;;;-2.12;100.00;99269.09;5019473;28;20188;-74
2022/12/15 03:42:47;;;;;;;33.37;28.77;;;;;;;-2.11;100.00;99270.78;5017955;28;20187;-75
2022/12/15 03:45:13;;;;;;;34.10;29.90;;;;;;;-2.11;100.00;99283.44;5016470;28;20184;-75
2022/12/15 03:47:42;;;;;;;34.10;29.30;;;;;;;-2.11;100.00;99280.91;5007215;28;20194;-76
2022/12/15 03:50:08;;;;;;;35.63;29.57;;;;;;;-2.08;100.00;99286.06;5018572;28;20188;-74
2022/12/15 03:52:34;;;;;;;33.77;28.60;;;;;;;-2.08;100.00;99287.75;5014923;28;20287;-74
2022/12/15 03:55:00;;;;;;;33.83;28.87;;;;;;;-2.09;100.00;99291.97;5017487;28;20211;-74
2022/12/15 03:57:25;;;;;;;32.77;28.17;;;;;;;-2.07;100.00;99279.34;5017620;28;20268;-76
2022/12/15 03:59:51;;;;;;;33.10;28.03;;;;;;;-2.05;100.00;99282.78;5017045;28;20195;-74
2022/12/15 04:02:16;;;;;;;32.23;28.80;;;;;;;-2.08;100.00;99291.13;5020582;28;20702;-74
2022/12/15 04:04:41;;;;;;;33.60;29.50;;;;;;;-2.10;100.00;99285.16;5019446;28;20203;-75
2022/12/15 04:07:08;;;;;;;33.33;28.87;;;;;;;-2.11;100.00;99287.69;5021139;28;20703;-76
2022/12/15 04:09:35;;;;;;;35.83;28.70;;;;;;;-2.13;100.00;99287.66;5022230;28;20197;-74
2022/12/15 04:12:02;;;;;;;37.40;29.90;;;;;;;-2.15;100.00;99285.06;5030008;28;20194;-75
2022/12/15 04:14:30;;;;;;;37.87;31.27;;;;;;;-2.16;100.00;99280.81;5018938;28;20262;-74
2022/12/15 04:16:56;;;;;;;35.50;31.30;;;;;;;-2.17;100.00;99279.09;5018346;28;20347;-74
2022/12/15 04:22:06;;;;;;;35.97;29.37;;;;;;;-2.13;100.00;99274.09;5024362;28;20444;-75
2022/12/15 05:33:02;;;;;;;35.07;29.33;;;;;;;-2.11;100.00;99296.13;5016530;28;20202;-75
2022/12/15 05:35:28;;;;;;;37.13;30.03;;;;;;;-2.13;100.00;99297.78;5018314;28;20227;-74
2022/12/15 05:37:53;;;;;;;34.87;29.60;;;;;;;-2.17;100.00;99301.06;5017646;28;20242;-77
2022/12/15 05:40:18;;;;;;;37.63;30.53;;;;;;;-2.16;100.00;99306.16;5015626;28;20258;-74
2022/12/15 05:42:43;;;;;;;37.93;31.60;;;;;;;-2.18;100.00;99299.34;5017642;28;21108;-75
2022/12/15 05:45:09;;;;;;;38.90;29.87;;;;;;;-2.15;100.00;99295.19;5017976;28;20211;-74
2022/12/15 05:47:34;;;;;;;41.47;30.20;;;;;;;-2.12;100.00;99303.69;5026508;28;20184;-75
2022/12/15 05:50:00;;;;;;;36.97;30.90;;;;;;;-2.11;100.00;99306.25;5019172;28;20279;-74
2022/12/15 05:52:25;;;;;;;38.60;29.90;;;;;;;-2.11;100.00;99298.66;5025005;28;20192;-75
2022/12/15 05:54:50;;;;;;;37.53;30.27;;;;;;;-2.10;100.00;99291.94;5028097;28;20688;-75
2022/12/15 05:57:16;;;;;;;37.50;30.50;;;;;;;-2.13;100.00;99297.78;5019706;28;20206;-74
2022/12/15 05:59:41;;;;;;;39.17;31.87;;;;;;;-2.13;100.00;99307.94;5019913;28;20193;-74
2022/12/15 06:02:06;;;;;;;41.10;32.20;;;;;;;-2.12;100.00;99313.84;5020847;28;20196;-75
2022/12/15 06:04:31;;;;;;;38.03;31.67;;;;;;;-2.12;100.00;99307.13;5019068;28;20320;-75
2022/12/15 06:06:57;;;;;;;37.53;30.07;;;;;;;-2.10;100.00;99307.97;5019284;28;20279;-75
2022/12/15 06:09:22;;;;;;;38.27;30.87;;;;;;;-2.09;100.00;99311.41;5019588;28;20189;-73
2022/12/15 06:11:47;;;;;;;29.80;24.47;;;;;;;-2.12;100.00;99312.19;5016891;28;20247;-76
2022/12/15 06:14:13;;;;;;;39.87;31.10;;;;;;;-2.11;100.00;99316.41;5017812;28;20219;-74
2022/12/15 06:16:38;;;;;;;41.90;32.77;;;;;;;-2.13;100.00;99320.59;5019915;28;20188;-75
2022/12/15 06:19:04;;;;;;;40.57;32.30;;;;;;;-2.08;100.00;99323.25;5038216;28;20193;-75
2022/12/15 06:21:34;;;;;;;41.57;30.33;;;;;;;-2.04;100.00;99327.59;5042192;28;20186;-76
2022/12/15 06:23:59;;;;;;;39.77;30.47;;;;;;;-2.04;100.00;99333.50;5028617;28;20287;-75
2022/12/15 06:26:28;;;;;;;42.43;33.57;;;;;;;-2.06;100.00;99335.16;5035808;28;20256;-74
2022/12/15 06:28:56;;;;;;;42.40;31.33;;;;;;;-2.06;100.00;99337.69;5030229;28;20197;-75
2022/12/15 06:31:24;;;;;;;38.03;31.50;;;;;;;-2.04;100.00;99336.06;5032883;28;20193;-75
2022/12/15 06:33:50;;;;;;;41.23;31.53;;;;;;;-2.06;100.00;99335.16;5028778;28;20204;-75
2022/12/15 06:36:16;;;;;;;39.23;31.27;;;;;;;-2.01;100.00;99332.72;5024117;28;20184;-75
2022/12/15 06:38:42;;;;;;;43.00;33.97;;;;;;;-1.98;100.00;99340.41;5027254;28;20189;-75
2022/12/15 06:41:09;;;;;;;39.67;31.03;;;;;;;-2.00;100.00;99342.94;5029365;28;20189;-75
2022/12/15 06:43:34;;;;;;;42.13;31.97;;;;;;;-1.96;100.00;99333.72;5030993;28;20288;-74
2022/12/15 06:46:01;;;;;;;40.67;31.83;;;;;;;-1.94;100.00;99338.81;5027978;28;20783;-73
2022/12/15 06:48:26;;;;;;;44.00;33.07;;;;;;;-2.00;100.00;99337.84;5027103;28;20187;-75
2022/12/15 06:50:51;;;;;;;43.37;32.50;;;;;;;-1.95;100.00;99337.09;5027331;28;20189;-74
2022/12/15 06:53:19;;;;;;;42.30;33.10;;;;;;;-1.95;100.00;99332.91;5022946;28;20295;-75
2022/12/15 06:55:45;;;;;;;42.27;30.87;;;;;;;-1.98;100.00;99327.75;5029877;28;20274;-74
2022/12/15 06:58:11;;;;;;;44.20;33.50;;;;;;;-1.98;100.00;99327.75;5030455;28;20197;-75
2022/12/15 07:00:38;;;;;;;38.37;31.47;;;;;;;-1.97;100.00;99319.31;5031598;28;20244;-75
2022/12/15 07:03:06;;;;;;;41.20;31.60;;;;;;;-1.97;100.00;99324.38;5030575;28;20183;-74
2022/12/15 07:05:31;;;;;;;39.57;30.10;;;;;;;-1.97;100.00;99321.00;5011336;28;20222;-75
2022/12/15 07:07:57;;;;;;;38.43;31.50;;;;;;;-1.97;100.00;99314.25;5033456;28;20274;-74
2022/12/15 07:10:22;;;;;;;41.67;31.90;;;;;;;-1.95;100.00;99324.41;5030529;28;20197;-75
2022/12/15 07:12:47;;;;;;;41.37;32.30;;;;;;;-1.97;100.00;99324.38;5032234;28;20192;-75
2022/12/15 07:15:13;;;;;;;40.77;31.20;;;;;;;-1.93;100.00;99336.34;5051512;28;20219;-76
2022/12/15 07:17:39;;;;;;;40.23;31.60;;;;;;;-1.94;100.00;99329.53;5046092;28;20173;-76
2022/12/15 07:20:05;;;;;;;46.80;33.77;;;;;;;-1.91;100.00;99322.03;5047997;28;20272;-74
2022/12/15 07:22:30;;;;;;;41.33;33.60;;;;;;;-1.92;100.00;99312.69;5024955;28;20193;-75
2022/12/15 07:24:56;;;;;;;44.17;34.03;;;;;;;-1.93;100.00;99315.19;5014699;28;20257;-74
2022/12/15 07:27:21;;;;;;;44.93;33.80;;;;;;;-1.91;100.00;99319.50;5025357;28;20275;-75
2022/12/15 07:29:47;;;;;;;45.40;33.80;;;;;;;-1.93;100.00;99327.84;5023250;28;20539;-74
2022/12/15 07:32:12;;;;;;;43.80;33.60;;;;;;;-1.93;100.00;99331.25;5023329;28;20194;-75
2022/12/15 07:34:37;;;;;;;40.90;32.70;;;;;;;-1.93;100.00;99325.31;5026493;28;20211;-74
2022/12/15 07:37:03;;;;;;;39.70;33.20;;;;;;;-1.94;100.00;99337.16;5047283;28;20183;-74
2022/12/15 07:39:28;;;;;;;42.90;33.20;;;;;;;-1.96;100.00;99343.84;5026272;28;20275;-75
2022/12/15 07:41:54;;;;;;;41.60;33.33;;;;;;;-1.95;100.00;99345.56;5027767;28;20184;-74
2022/12/15 07:44:19;;;;;;;39.63;32.67;;;;;;;-1.90;100.00;99346.56;5024975;28;20208;-74
2022/12/15 07:46:47;;;;;;;41.07;33.63;;;;;;;-1.86;100.00;99343.28;5021249;28;20322;-75
2022/12/15 07:49:13;;;;;;;42.97;34.23;;;;;;;-1.85;100.00;99342.44;5016830;28;20665;-75
2022/12/15 07:51:40;;;;;;;46.20;35.27;;;;;;;-1.79;100.00;99356.13;5017060;28;20202;-74
2022/12/15 07:54:05;;;;;;;41.43;33.20;;;;;;;-1.77;100.00;99367.16;5017952;28;20213;-75
2022/12/15 07:56:30;;;;;;;39.93;32.33;;;;;;;-1.74;100.00;99373.19;5025609;28;20196;-75
2022/12/15 07:58:56;;;;;;;39.93;32.10;;;;;;;-1.71;100.00;99377.47;5020772;28;20564;-74
2022/12/15 08:01:21;;;;;;;40.77;33.13;;;;;;;-1.70;100.00;99372.44;5021270;28;20800;-75
2022/12/15 08:03:47;;;;;;;41.83;33.20;;;;;;;-1.69;100.00;99374.16;5021292;28;20887;-73
2022/12/15 08:06:14;;;;;;;37.63;31.23;;;;;;;-1.69;100.00;99396.13;5022274;28;20233;-74
2022/12/15 08:08:40;;;;;;;44.37;33.67;;;;;;;-1.70;100.00;99389.31;5017611;28;20184;-75
2022/12/15 08:11:12;;;;;;;40.27;32.70;;;;;;;-1.68;100.00;99387.69;5026904;28;20214;-73
2022/12/15 08:13:38;;;;;;;38.87;32.37;;;;;;;-1.69;100.00;99381.78;5033882;28;20211;-74
2022/12/15 08:16:03;;;;;;;41.63;32.10;;;;;;;-1.72;100.00;99386.75;5032978;28;20259;-75
2022/12/15 08:18:28;;;;;;;36.57;31.53;;;;;;;-1.73;100.00;99374.03;5031431;28;20637;-73
2022/12/15 08:20:54;;;;;;;38.77;33.47;;;;;;;-1.74;100.00;99385.00;5035346;28;20187;-74
2022/12/15 08:23:19;;;;;;;38.17;32.20;;;;;;;-1.74;100.00;99382.47;5024288;28;20271;-74
2022/12/15 08:25:45;;;;;;;41.13;33.10;;;;;;;-1.76;100.00;99379.88;5033192;28;20235;-74
2022/12/15 08:28:10;;;;;;;42.87;34.80;;;;;;;-1.78;100.00;99393.34;5033124;28;20191;-75
2022/12/15 08:30:35;;;;;;;39.93;33.97;;;;;;;-1.79;100.00;99400.09;5031627;28;20246;-74
2022/12/15 08:33:02;;;;;;;41.17;34.57;;;;;;;-1.79;100.00;99420.38;5031433;28;20233;-75
2022/12/15 08:35:28;;;;;;;41.53;32.63;;;;;;;-1.80;100.00;99421.19;5033252;28;20569;-74
2022/12/15 08:37:53;;;;;;;42.43;33.93;;;;;;;-1.77;100.00;99428.06;5041730;28;20193;-75
2022/12/15 08:40:19;;;;;;;40.47;34.43;;;;;;;-1.78;100.00;99432.25;5057675;28;20190;-74
2022/12/15 08:42:44;;;;;;;40.83;32.90;;;;;;;-1.77;100.00;99415.38;5031848;28;20180;-74
2022/12/15 08:45:11;;;;;;;43.57;34.23;;;;;;;-1.73;100.00;99420.56;5033417;28;20270;-74
2022/12/15 08:47:37;;;;;;;42.10;34.13;;;;;;;-1.75;100.00;99416.28;5033339;28;20638;-74
2022/12/15 08:50:03;;;;;;;40.07;32.33;;;;;;;-1.75;100.00;99403.59;5031599;28;20190;-74
2022/12/15 08:52:29;;;;;;;40.40;32.93;;;;;;;-1.70;100.00;99410.50;5034977;28;20208;-74
2022/12/15 08:54:54;;;;;;;41.17;34.57;;;;;;;-1.66;100.00;99413.13;5056108;28;20241;-75
2022/12/15 08:57:19;;;;;;;41.00;34.50;;;;;;;-1.59;100.00;99417.53;5039713;28;20205;-74
2022/12/15 08:59:45;;;;;;;40.97;33.90;;;;;;;-1.59;100.00;99400.59;5032748;28;20306;-75
2022/12/15 09:02:11;;;;;;;38.00;32.10;;;;;;;-1.61;100.00;99397.19;5032332;28;20185;-75
2022/12/15 09:04:37;;;;;;;40.50;34.53;;;;;;;-1.61;100.00;99399.72;5032349;28;20203;-74
2022/12/15 09:07:03;;;;;;;37.63;33.00;;;;;;;-1.67;100.00;99402.09;5035661;28;20246;-75
2022/12/15 09:09:28;;;;;;;43.53;34.70;;;;;;;-1.76;100.00;99397.63;5013091;28;20194;-74
2022/12/15 09:11:53;;;;;;;41.23;33.27;;;;;;;-1.81;100.00;99404.25;5029160;28;20616;-73
2022/12/15 09:14:19;;;;;;;45.33;36.17;;;;;;;-1.84;100.00;99406.72;5041209;28;20242;-74
2022/12/15 09:16:44;;;;;;;40.93;33.67;;;;;;;-1.87;100.00;99402.41;5033076;28;20190;-74
2022/12/15 09:19:10;;;;;;;41.47;33.90;;;;;;;-1.87;100.00;99404.94;5026298;28;20278;-74
2022/12/15 09:21:35;;;;;;;42.37;35.57;;;;;;;-1.86;100.00;99413.44;5033024;28;20222;-76
2022/12/15 09:24:02;;;;;;;40.60;34.20;;;;;;;-1.82;100.00;99424.53;5026153;28;20311;-76
2022/12/15 09:26:30;;;;;;;41.97;35.70;;;;;;;-1.80;100.00;99422.88;5028956;28;20184;-74
2022/12/15 09:28:55;;;;;;;43.53;36.70;;;;;;;-1.76;100.00;99430.63;5032296;28;20298;-74
2022/12/15 09:31:24;;;;;;;39.70;34.73;;;;;;;-1.68;100.00;99433.34;5036302;28;20240;-75
2022/12/15 09:33:51;;;;;;;42.03;35.37;;;;;;;-1.59;100.00;99431.06;5057226;28;20205;-77
2022/12/15 09:36:17;;;;;;;41.37;35.23;;;;;;;-1.52;100.00;99421.94;5067736;28;20188;-74
2022/12/15 09:38:42;;;;;;;40.43;34.47;;;;;;;-1.47;100.00;99414.44;5021013;28;20737;-76
2022/12/15 09:41:13;;;;;;;40.43;34.07;;;;;;;-1.46;100.00;99423.78;5024444;28;20188;-75
2022/12/15 09:43:45;;;;;;;37.77;33.67;;;;;;;-1.45;100.00;99426.34;5027138;28;20687;-74
2022/12/15 09:46:35;;;;;;;39.93;33.87;;;;;;;-1.41;100.00;99419.66;5023771;28;20898;-74
2022/12/15 09:49:04;;;;;;;38.77;34.20;;;;;;;-1.40;100.00;99414.66;5024358;28;20242;-74
2022/12/15 09:51:41;;;;;;;38.20;32.50;;;;;;;-1.33;100.00;99420.72;5024437;28;20560;-75
2022/12/15 09:54:10;;;;;;;36.07;30.40;;;;;;;-1.25;100.00;99418.38;5025249;28;20759;-74
2022/12/15 09:56:42;;;;;;;37.67;33.07;;;;;;;-1.15;100.00;99419.47;5026710;28;20543;-74
2022/12/15 09:59:24;;;;;;;36.43;32.07;;;;;;;-1.04;100.00;99410.44;5024989;28;20195;-75
2022/12/15 10:02:17;;;;;;;37.83;32.33;;;;;;;-1.05;100.00;99390.06;5030325;28;20192;-74
2022/12/15 10:04:54;;;;;;;41.57;34.53;;;;;;;-1.06;100.00;99399.38;5027491;28;20684;-75
2022/12/15 10:07:28;;;;;;;37.23;31.53;;;;;;;-1.01;100.00;99405.44;5024113;28;20191;-75
2022/12/15 10:09:54;;;;;;;38.37;33.50;;;;;;;-1.01;100.00;99399.47;5026895;28;20278;-74
2022/12/15 10:12:25;;;;;;;38.20;32.33;;;;;;;-0.88;100.00;99398.09;5010096;28;20185;-76
2022/12/15 10:15:05;;;;;;;39.23;32.47;;;;;;;-0.96;100.00;99408.06;5028355;28;20215;-76
2022/12/15 10:17:45;;;;;;;38.93;32.60;;;;;;;-1.01;100.00;99415.59;5040840;28;20971;-75
2022/12/15 10:20:18;;;;;;;37.63;32.77;;;;;;;-0.94;100.00;99403.88;5025449;28;20212;-75
2022/12/15 10:22:44;;;;;;;38.00;32.57;;;;;;;-0.95;100.00;99397.94;5007457;28;20203;-75
2022/12/15 10:25:19;;;;;;;40.07;34.30;;;;;;;-0.89;100.00;99407.38;5026148;28;20209;-75
2022/12/15 10:27:47;;;;;;;38.37;32.83;;;;;;;-0.79;100.00;99423.69;5025465;28;20211;-75
2022/12/15 10:30:14;;;;;;;39.53;32.27;;;;;;;-0.78;100.00;99403.41;5023775;28;20194;-75
2022/12/15 10:32:49;;;;;;;36.20;31.77;;;;;;;-0.71;100.00;99388.28;5025162;28;20272;-75
2022/12/15 10:35:28;;;;;;;37.23;32.33;;;;;;;-0.65;100.00;99383.34;5024317;28;20643;-74
2022/12/15 10:37:58;;;;;;;36.70;32.70;;;;;;;-0.55;100.00;99386.97;5026049;28;20578;-74
2022/12/15 10:40:46;;;;;;;37.13;32.17;;;;;;;-0.66;100.00;99374.00;5030382;28;20199;-75
2022/12/15 10:43:39;;;;;;;37.60;32.30;;;;;;;-0.57;100.00;99380.97;5024692;28;20279;-75
2022/12/15 10:46:07;;;;;;;39.23;32.47;;;;;;;-0.59;100.00;99367.38;5023642;28;20220;-75
2022/12/15 10:48:33;;;;;;;38.70;31.77;;;;;;;-0.57;100.00;99350.47;5040781;28;20911;-75
2022/12/15 10:51:17;;;;;;;39.97;32.77;;;;;;;-0.50;100.00;99349.78;5025849;28;20244;-75
2022/12/15 10:53:52;;;;;;;36.97;32.80;;;;;;;-0.44;100.00;99361.75;5024566;28;20244;-76
2022/12/15 10:56:23;;;;;;;35.87;31.03;;;;;;;-0.41;100.00;99364.34;5023887;28;20194;-75
2022/12/15 10:58:52;;;;;;;35.70;31.73;;;;;;;-0.35;100.00;99357.72;5024131;28;20696;-75
2022/12/15 11:01:24;;;;;;;35.73;31.83;;;;;;;-0.28;100.00;99357.84;5023103;28;20189;-75
2022/12/15 11:03:51;;;;;;;35.87;31.97;;;;;;;-0.37;100.00;99353.44;5039143;28;20226;-75
2022/12/15 11:06:47;;;;;;;34.87;31.00;;;;;;;-0.29;100.00;99343.41;5022199;28;20192;-75
2022/12/15 11:09:27;;;;;;;41.67;32.47;;;;;;;-0.33;100.00;99345.03;5012800;28;20264;-75
2022/12/15 11:14:49;;;;;;;43.00;33.50;;;;;;;-0.45;100.00;99347.34;5024308;28;20717;-75
2022/12/15 11:17:22;;;;;;;37.60;32.57;;;;;;;-0.38;100.00;99351.72;5006951;28;20249;-74
2022/12/15 11:20:04;;;;;;;38.20;31.80;;;;;;;-0.38;100.00;99360.19;5007364;28;20203;-75
2022/12/15 11:22:48;;;;;;;36.10;31.67;;;;;;;-0.32;100.00;99355.22;5016990;28;20283;-75
2022/12/15 11:25:30;;;;;;;37.63;31.77;;;;;;;-0.36;100.00;99356.00;5008324;28;20190;-75
2022/12/15 11:28:00;;;;;;;38.60;32.23;;;;;;;-0.38;100.00;99355.09;5018110;28;20205;-75
2022/12/15 11:30:36;;;;;;;37.77;32.23;;;;;;;-0.36;100.00;99350.91;5017577;28;20212;-74
2022/12/15 11:33:02;;;;;;;36.47;32.07;;;;;;;-0.38;100.00;99332.22;5038706;28;20190;-74
2022/12/15 11:35:49;;;;;;;41.40;33.17;;;;;;;-0.40;100.00;99320.31;5017056;28;20215;-75
2022/12/15 11:38:27;;;;;;;38.27;33.00;;;;;;;-0.40;100.00;99299.97;5004225;28;20190;-75
2022/12/15 11:40:57;;;;;;;39.43;32.13;;;;;;;-0.40;100.00;99293.22;5008475;28;20193;-75
2022/12/15 11:43:45;;;;;;;37.10;32.93;;;;;;;-0.42;100.00;99299.97;5025968;28;20219;-75
2022/12/15 11:46:21;;;;;;;36.87;31.30;;;;;;;-0.42;100.00;99299.09;5019584;28;20265;-76
2022/12/15 11:48:47;;;;;;;36.80;31.60;;;;;;;-0.45;100.00;99284.66;5046264;28;20215;-76
2022/12/15 11:51:39;;;;;;;35.53;31.20;;;;;;;-0.38;100.00;99281.38;5028744;28;20240;-74
2022/12/15 11:54:32;;;;;;;37.83;31.97;;;;;;;-0.42;100.00;99266.03;5011308;28;20213;-75
2022/12/15 11:57:37;;;;;;;35.53;30.67;;;;;;;-0.56;100.00;99255.63;5008136;28;20911;-75
2022/12/15 12:00:18;;;;;;;39.57;34.77;;;;;;;-0.51;100.00;99261.63;5013777;28;20204;-75
2022/12/15 12:03:17;;;;;;;37.87;33.03;;;;;;;-0.48;100.00;99246.44;5021542;28;20647;-74
2022/12/15 12:05:50;;;;;;;36.30;31.43;;;;;;;-0.43;100.00;99251.63;5009238;28;20926;-75
2022/12/15 12:08:28;;;;;;;35.00;31.10;;;;;;;-0.41;100.00;99249.97;5016889;28;20567;-75
2022/12/15 12:11:12;;;;;;;35.07;29.87;;;;;;;-0.41;100.00;99242.34;5014612;28;22493;-75
2022/12/15 12:13:51;;;;;;;35.90;31.63;;;;;;;-0.43;100.00;99244.00;5012772;28;20223;-75
2022/12/15 12:16:16;;;;;;;35.33;30.30;;;;;;;-0.44;100.00;99255.84;5012777;28;20278;-76
2022/12/15 12:18:52;;;;;;;34.87;31.17;;;;;;;-0.37;100.00;99244.97;5013560;28;20247;-77
2022/12/15 12:21:26;;;;;;;35.67;30.80;;;;;;;-0.32;100.00;99250.16;5012140;28;20932;-75
2022/12/15 12:24:12;;;;;;;37.60;31.37;;;;;;;-0.39;100.00;99249.19;5010806;28;20221;-76
2022/12/15 12:26:45;;;;;;;35.17;31.37;;;;;;;-0.35;100.00;99229.75;5013629;28;20290;-75
2022/12/15 12:29:17;;;;;;;34.90;30.67;;;;;;;-0.43;100.00;99236.34;5010918;28;20201;-75
2022/12/15 12:31:50;;;;;;;36.37;31.87;;;;;;;-0.40;100.00;99254.22;5012543;28;20195;-75
2022/12/15 12:34:27;;;;;;;37.93;32.20;;;;;;;-0.35;100.00;99245.84;5008630;28;20743;-75
2022/12/15 12:36:59;;;;;;;34.50;30.80;;;;;;;-0.29;100.00;99239.16;5008855;28;20209;-75
2022/12/15 12:39:25;;;;;;;36.60;32.63;;;;;;;-0.27;100.00;99235.81;5010228;28;20207;-76
2022/12/15 12:42:14;;;;;;;35.23;30.27;;;;;;;-0.30;100.00;99220.50;5013353;28;20190;-76
2022/12/15 12:44:39;;;;;;;34.07;30.43;;;;;;;-0.25;100.00;99225.69;5008203;28;20199;-75
2022/12/15 12:47:13;;;;;;;34.70;30.87;;;;;;;-0.30;100.00;99210.31;5009740;28;20273;-76
2022/12/15 12:49:48;;;;;;;35.43;30.73;;;;;;;-0.33;100.00;99198.44;5013293;28;20191;-75
2022/12/15 12:52:21;;;;;;;33.73;29.33;;;;;;;-0.29;100.00;99186.63;5014777;28;20194;-76
2022/12/15 12:55:11;;;;;;;37.73;31.47;;;;;;;-0.28;100.00;99206.13;5013749;28;20227;-76
2022/12/15 12:57:41;;;;;;;34.00;29.27;;;;;;;-0.25;100.00;99192.63;4984957;28;20226;-74
2022/12/15 13:00:06;;;;;;;35.30;31.17;;;;;;;-0.12;100.00;99201.31;5022142;28;20186;-75
2022/12/15 13:02:36;;;;;;;35.33;30.30;;;;;;;-0.10;100.00;99200.53;5024062;28;20698;-74
2022/12/15 13:05:20;;;;;;;33.87;30.27;;;;;;;-0.08;100.00;99206.50;5021422;28;20204;-76
2022/12/15 13:08:13;;;;;;;34.93;29.47;;;;;;;-0.04;100.00;99215.88;5021983;28;20213;-74
2022/12/15 13:10:42;;;;;;;34.77;29.97;;;;;;;-0.04;100.00;99199.75;5023568;28;20758;-76
2022/12/15 13:13:15;;;;;;;33.97;30.27;;;;;;;-0.08;100.00;99190.38;5004937;28;20191;-75
2022/12/15 13:15:43;;;;;;;32.30;28.80;;;;;;;0.11;100.00;99186.41;5022857;28;20228;-75
2022/12/15 13:18:19;;;;;;;33.97;30.47;;;;;;;0.17;100.00;99173.81;5019318;28;20202;-76
2022/12/15 13:20:47;;;;;;;34.13;29.63;;;;;;;0.12;100.00;99173.75;5022027;28;20267;-75
2022/12/15 13:23:18;;;;;;;35.50;31.13;;;;;;;0.13;100.00;99174.59;5020518;28;20267;-76
2022/12/15 13:25:49;;;;;;;34.83;30.27;;;;;;;0.19;100.00;99158.56;5023851;28;20201;-76
2022/12/15 13:28:24;;;;;;;32.20;28.80;;;;;;;0.22;100.00;99163.69;5013203;28;20214;-74
2022/12/15 13:31:13;;;;;;;36.90;30.77;;;;;;;0.18;100.00;99160.25;5022072;28;20275;-75
2022/12/15 13:33:53;;;;;;;34.43;30.40;;;;;;;0.29;100.00;99152.78;5014968;28;20364;-76
2022/12/15 13:36:41;;;;;;;33.77;30.13;;;;;;;0.25;100.00;99143.38;5021977;28;20270;-75
2022/12/15 13:39:12;;;;;;;33.30;29.37;;;;;;;0.27;100.00;99139.19;5024168;28;20319;-75
2022/12/15 13:42:03;;;;;;;33.13;28.93;;;;;;;0.24;100.00;99151.84;5025312;28;20194;-75
2022/12/15 13:44:33;;;;;;;32.73;28.93;;;;;;;0.18;100.00;99151.75;5018804;28;20758;-75
2022/12/15 13:47:11;;;;;;;34.90;30.50;;;;;;;0.17;100.00;99142.41;5015505;28;20198;-76
2022/12/15 13:49:45;;;;;;;32.53;28.97;;;;;;;0.13;100.00;99159.31;5015019;28;20194;-75
2022/12/15 13:52:16;;;;;;;36.03;30.07;;;;;;;0.06;100.00;99152.44;5016691;28;21190;-75